createdAt,value
2024-02-13T00:01:59.346Z,100.00
2024-02-13T00:04:27.378Z,100.00
2024-02-13T00:06:57.377Z,100.00
2024-02-13T00:09:25.479Z,100.00
2024-02-13T00:11:55.148Z,100.00
2024-02-13T00:14:23.318Z,100.00
2024-02-13T00:16:51.414Z,100.00
2024-02-13T00:19:19.513Z,100.00
2024-02-13T00:21:49.470Z,100.00
2024-02-13T00:24:17.629Z,100.00
2024-02-13T00:26:46.004Z,100.00
2024-02-13T00:29:15.389Z,100.00
2024-02-13T00:31:43.336Z,100.00
2024-02-13T00:34:11.360Z,100.00
2024-02-13T00:36:39.364Z,100.00
2024-02-13T00:39:08.838Z,100.00
2024-02-13T00:41:37.950Z,100.00
2024-02-13T00:44:06.410Z,100.00
2024-02-13T00:46:36.390Z,100.00
2024-02-13T00:49:05.188Z,100.00
2024-02-13T00:51:33.242Z,100.00
2024-02-13T00:54:01.299Z,100.00
2024-02-13T00:56:29.337Z,100.00
2024-02-13T00:59:04.107Z,100.00
2024-02-13T01:01:32.409Z,100.00
2024-02-13T01:04:02.003Z,100.00
2024-02-13T01:06:30.188Z,100.00
2024-02-13T01:08:58.591Z,100.00
2024-02-13T01:11:26.724Z,100.00
2024-02-13T01:13:54.742Z,100.00
2024-02-13T01:16:23.444Z,100.00
2024-02-13T01:18:53.108Z,100.00
2024-02-13T01:21:23.532Z,100.00
2024-02-13T01:23:51.933Z,100.00
2024-02-13T01:26:20.624Z,100.00
2024-02-13T01:28:48.742Z,100.00
2024-02-13T01:31:16.994Z,100.00
2024-02-13T01:33:45.725Z,100.00
2024-02-13T01:36:13.885Z,100.00
2024-02-13T01:38:43.321Z,100.00
2024-02-13T01:41:11.480Z,100.00
2024-02-13T01:43:41.725Z,100.00
2024-02-13T01:46:10.378Z,100.00
2024-02-13T01:48:40.210Z,100.00
2024-02-13T01:51:09.532Z,100.00
2024-02-13T01:53:38.320Z,100.00
2024-02-13T01:56:10.231Z,100.00
2024-02-13T01:58:39.720Z,100.00
2024-02-13T02:01:10.343Z,100.00
2024-02-13T02:03:40.171Z,100.00
2024-02-13T02:06:08.785Z,100.00
2024-02-13T02:08:37.161Z,100.00
2024-02-13T02:11:05.478Z,100.00
2024-02-13T02:13:34.883Z,100.00
2024-02-13T02:16:02.881Z,100.00
2024-02-13T02:18:30.974Z,100.00
2024-02-13T02:20:59.106Z,100.00
2024-02-13T02:23:27.899Z,100.00
2024-02-13T02:25:57.531Z,100.00
2024-02-13T02:28:26.057Z,100.00
2024-02-13T02:30:54.002Z,100.00
2024-02-13T02:33:33.551Z,100.00
2024-02-13T02:36:01.887Z,100.00
2024-02-13T02:38:29.924Z,100.00
2024-02-13T02:40:59.303Z,100.00
2024-02-13T02:43:27.306Z,100.00
2024-02-13T02:45:55.179Z,100.00
2024-02-13T02:48:23.382Z,100.00
2024-02-13T02:52:07.568Z,100.00
2024-02-13T02:54:37.610Z,100.00
2024-02-13T02:57:07.898Z,100.00
2024-02-13T02:59:36.202Z,100.00
2024-02-13T03:02:04.370Z,100.00
2024-02-13T03:04:32.649Z,100.00
2024-02-13T03:07:01.097Z,100.00
2024-02-13T03:09:29.140Z,100.00
2024-02-13T03:11:57.200Z,100.00
2024-02-13T03:14:26.721Z,100.00
2024-02-13T03:16:54.683Z,100.00
2024-02-13T03:19:22.702Z,100.00
2024-02-13T03:21:50.749Z,100.00
2024-02-13T03:24:18.719Z,100.00
2024-02-13T03:26:46.840Z,100.00
2024-02-13T03:29:14.884Z,100.00
2024-02-13T03:31:44.151Z,100.00
2024-02-13T03:34:12.200Z,100.00
2024-02-13T03:36:40.216Z,100.00
2024-02-13T03:39:08.106Z,100.00
2024-02-13T03:41:42.859Z,100.00
2024-02-13T03:44:12.579Z,100.00
2024-02-13T03:46:40.940Z,100.00
2024-02-13T03:49:10.984Z,100.00
2024-02-13T03:51:39.285Z,100.00
2024-02-13T03:54:08.425Z,100.00
2024-02-13T03:56:38.401Z,100.00
2024-02-13T03:59:11.463Z,100.00
2024-02-13T04:01:40.786Z,100.00
2024-02-13T04:04:10.236Z,100.00
2024-02-13T04:06:38.297Z,100.00
2024-02-13T04:09:08.333Z,100.00
2024-02-13T04:11:37.082Z,100.00
2024-02-13T04:14:05.369Z,100.00
2024-02-13T04:16:33.400Z,100.00
2024-02-13T04:19:01.404Z,100.00
2024-02-13T04:21:30.797Z,100.00
2024-02-13T04:23:58.789Z,100.00
2024-02-13T04:26:45.033Z,100.00
2024-02-13T04:29:13.109Z,100.00
2024-02-13T04:31:41.047Z,100.00
2024-02-13T04:34:09.175Z,100.00
2024-02-13T04:36:39.922Z,100.00
2024-02-13T04:39:08.522Z,100.00
2024-02-13T04:41:36.773Z,100.00
2024-02-13T04:44:05.483Z,100.00
2024-02-13T04:46:33.424Z,100.00
2024-02-13T04:49:01.709Z,100.00
2024-02-13T04:51:30.029Z,100.00
2024-02-13T04:53:59.339Z,100.00
2024-02-13T04:56:27.690Z,100.00
2024-02-13T04:58:57.279Z,100.00
2024-02-13T05:01:26.394Z,100.00
2024-02-13T05:04:12.510Z,100.00
2024-02-13T05:06:57.929Z,100.00
2024-02-13T05:09:27.319Z,100.00
2024-02-13T05:11:55.661Z,100.00
2024-02-13T05:14:23.827Z,100.00
2024-02-13T05:16:51.966Z,100.00
2024-02-13T05:19:20.203Z,100.00
2024-02-13T05:21:48.295Z,100.00
2024-02-13T05:24:16.184Z,100.00
2024-02-13T05:26:45.579Z,100.00
2024-02-13T05:29:13.557Z,100.00
2024-02-13T05:31:42.484Z,100.00
2024-02-13T05:34:11.404Z,100.00
2024-02-13T05:36:39.560Z,100.00
2024-02-13T05:39:09.310Z,100.00
2024-02-13T05:41:37.242Z,100.00
2024-02-13T05:44:06.627Z,100.00
2024-02-13T05:46:34.711Z,100.00
2024-02-13T05:49:02.637Z,100.00
2024-02-13T05:51:31.133Z,100.00
2024-02-13T05:54:00.100Z,100.00
2024-02-13T05:56:28.760Z,100.00
2024-02-13T05:58:59.331Z,100.00
2024-02-13T06:01:29.060Z,100.00
2024-02-13T06:03:59.475Z,100.00
2024-02-13T06:06:28.109Z,100.00
2024-02-13T06:08:56.729Z,100.00
2024-02-13T06:11:28.703Z,100.00
2024-02-13T06:13:58.307Z,100.00
2024-02-13T06:16:26.226Z,100.00
2024-02-13T06:18:55.640Z,100.00
2024-02-13T06:21:27.339Z,100.00
2024-02-13T06:23:57.200Z,100.00
2024-02-13T06:26:25.895Z,100.00
2024-02-13T06:28:54.838Z,100.00
2024-02-13T06:31:23.090Z,100.00
2024-02-13T06:33:51.096Z,100.00
2024-02-13T06:36:20.631Z,100.00
2024-02-13T06:38:48.577Z,100.00
2024-02-13T06:41:16.694Z,100.00
2024-02-13T06:43:44.683Z,100.00
2024-02-13T06:46:13.600Z,100.00
2024-02-13T06:48:42.768Z,100.00
2024-02-13T06:51:13.980Z,100.00
2024-02-13T06:53:44.481Z,100.00
2024-02-13T06:56:15.710Z,100.00
2024-02-13T06:58:44.082Z,100.00
2024-02-13T07:01:14.225Z,100.00
2024-02-13T07:03:43.013Z,100.00
2024-02-13T07:06:13.231Z,100.00
2024-02-13T07:08:43.051Z,100.00
2024-02-13T07:11:12.071Z,100.00
2024-02-13T07:13:40.003Z,100.00
2024-02-13T07:16:09.115Z,100.00
2024-02-13T07:18:37.174Z,100.00
2024-02-13T07:21:08.580Z,100.00
2024-02-13T07:23:37.258Z,100.00
2024-02-13T07:26:06.719Z,100.00
2024-02-13T07:28:34.756Z,100.00
2024-02-13T07:31:03.562Z,100.00
2024-02-13T07:33:32.680Z,100.00
2024-02-13T07:36:01.713Z,100.00
2024-02-13T07:38:29.698Z,100.00
2024-02-13T07:40:59.364Z,100.00
2024-02-13T07:43:28.751Z,100.00
2024-02-13T07:45:56.672Z,100.00
2024-02-13T07:48:25.057Z,100.00
2024-02-13T07:50:55.201Z,100.00
2024-02-13T07:53:23.298Z,100.00
2024-02-13T07:55:51.288Z,100.00
2024-02-13T07:58:19.348Z,100.00
2024-02-13T08:00:48.711Z,100.00
2024-02-13T08:03:16.751Z,100.00
2024-02-13T08:05:46.646Z,100.00
2024-02-13T08:08:14.690Z,100.00
2024-02-13T08:10:45.272Z,100.00
2024-02-13T08:13:13.680Z,100.00
2024-02-13T08:15:41.569Z,100.00
2024-02-13T08:18:11.108Z,100.00
2024-02-13T08:20:39.200Z,100.00
2024-02-13T08:23:07.117Z,100.00
2024-02-13T08:25:35.677Z,100.00
2024-02-13T08:28:07.163Z,100.00
2024-02-13T08:30:36.561Z,100.00
2024-02-13T08:33:06.075Z,100.00
2024-02-13T08:35:36.842Z,100.00
2024-02-13T08:38:07.909Z,100.00
2024-02-13T08:40:38.589Z,100.00
2024-02-13T08:43:07.259Z,100.00
2024-02-13T08:45:35.203Z,100.00
2024-02-13T08:48:03.268Z,100.00
2024-02-13T08:50:32.531Z,100.00
2024-02-13T08:53:02.539Z,100.00
2024-02-13T08:55:30.498Z,100.00
2024-02-13T08:57:58.437Z,100.00
2024-02-13T09:00:30.173Z,100.00
2024-02-13T09:03:00.164Z,100.00
2024-02-13T09:05:28.529Z,100.00
2024-02-13T09:07:56.595Z,100.00
2024-02-13T09:10:25.833Z,100.00
2024-02-13T09:12:53.817Z,100.00
2024-02-13T09:15:21.826Z,100.00
2024-02-13T09:17:50.453Z,100.00
2024-02-13T09:20:22.945Z,100.00
2024-02-13T09:22:51.937Z,100.00
2024-02-13T09:25:21.663Z,100.00
2024-02-13T09:27:52.666Z,100.00
2024-02-13T09:30:21.066Z,100.00
2024-02-13T09:32:50.490Z,100.00
2024-02-13T09:35:19.094Z,100.00
2024-02-13T09:37:47.283Z,100.00
2024-02-13T09:40:15.864Z,100.00
2024-02-13T09:42:44.353Z,100.00
2024-02-13T09:45:15.412Z,100.00
2024-02-13T09:47:43.645Z,100.00
2024-02-13T09:50:13.891Z,100.00
2024-02-13T09:52:48.562Z,100.00
2024-02-13T09:55:17.596Z,100.00
2024-02-13T09:57:46.756Z,100.00
2024-02-13T10:00:19.320Z,100.00
2024-02-13T10:02:49.405Z,100.00
2024-02-13T10:05:19.226Z,100.00
2024-02-13T10:07:47.598Z,100.00
2024-02-13T10:10:16.192Z,100.00
2024-02-13T10:12:53.318Z,100.00
2024-02-13T10:15:23.455Z,100.00
2024-02-13T10:17:52.715Z,100.00
2024-02-13T10:20:21.109Z,100.00
2024-02-13T10:22:51.324Z,100.00
2024-02-13T10:25:25.172Z,100.00
2024-02-13T10:27:55.799Z,100.00
2024-02-13T10:30:26.824Z,100.00
2024-02-13T10:32:55.102Z,100.00
2024-02-13T10:35:24.002Z,100.00
2024-02-13T10:37:53.751Z,100.00
2024-02-13T10:40:24.501Z,100.00
2024-02-13T10:42:52.683Z,100.00
2024-02-13T10:45:23.139Z,100.00
2024-02-13T10:47:55.909Z,100.00
2024-02-13T10:50:24.268Z,100.00
2024-02-13T10:52:55.922Z,100.00
2024-02-13T10:55:24.130Z,100.00
2024-02-13T10:57:53.246Z,100.00
2024-02-13T11:00:21.997Z,100.00
2024-02-13T11:02:52.949Z,100.00
2024-02-13T11:05:26.525Z,100.00
2024-02-13T11:07:57.277Z,100.00
2024-02-13T11:10:30.583Z,100.00
2024-02-13T11:12:58.925Z,100.00
2024-02-13T11:15:30.228Z,100.00
2024-02-13T11:17:58.958Z,100.00
2024-02-13T11:20:30.369Z,100.00
2024-02-13T11:23:01.268Z,100.00
2024-02-13T11:25:31.201Z,100.00
2024-02-13T11:28:07.278Z,100.00
2024-02-13T11:30:36.538Z,100.00
2024-02-13T11:33:07.822Z,100.00
2024-02-13T11:35:47.616Z,100.00
2024-02-13T11:38:20.127Z,100.00
2024-02-13T11:40:50.384Z,100.00
2024-02-13T11:43:22.775Z,100.00
2024-02-13T11:45:51.781Z,100.00
2024-02-13T11:48:22.164Z,100.00
2024-02-13T11:50:51.939Z,100.00
2024-02-13T11:53:20.572Z,100.00
2024-02-13T11:55:50.342Z,100.00
2024-02-13T11:58:22.920Z,100.00
2024-02-13T12:01:01.677Z,100.00
2024-02-13T12:03:30.274Z,100.00
2024-02-13T12:06:01.812Z,100.00
2024-02-13T12:08:31.704Z,100.00
2024-02-13T12:11:02.279Z,100.00
2024-02-13T12:13:32.964Z,100.00
2024-02-13T12:16:01.501Z,100.00
2024-02-13T12:18:31.143Z,100.00
2024-02-13T12:21:02.242Z,100.00
2024-02-13T12:23:30.317Z,100.00
2024-02-13T12:26:02.760Z,100.00
2024-02-13T12:28:31.061Z,100.00
2024-02-13T12:31:00.490Z,100.00
2024-02-13T12:33:27.725Z,100.00
2024-02-13T12:36:07.085Z,100.00
2024-02-13T12:38:38.288Z,100.00
2024-02-13T12:41:07.653Z,100.00
2024-02-13T12:43:35.722Z,100.00
2024-02-13T12:46:04.494Z,100.00
2024-02-13T12:48:38.354Z,100.00
2024-02-13T12:51:11.560Z,100.00
2024-02-13T12:53:44.287Z,100.00
2024-02-13T12:56:13.241Z,100.00
2024-02-13T12:58:43.565Z,100.00
2024-02-13T13:01:12.092Z,100.00
2024-02-13T13:03:40.434Z,100.00
2024-02-13T13:06:13.069Z,100.00
2024-02-13T13:08:43.227Z,100.00
2024-02-13T13:11:11.750Z,100.00
2024-02-13T13:13:39.878Z,100.00
2024-02-13T13:16:09.093Z,100.00
2024-02-13T13:18:39.954Z,100.00
2024-02-13T13:21:09.406Z,100.00
2024-02-13T13:23:39.430Z,100.00
2024-02-13T13:26:09.854Z,100.00
2024-02-13T13:28:39.589Z,100.00
2024-02-13T13:31:10.131Z,100.00
2024-02-13T13:33:38.996Z,100.00
2024-02-13T13:36:08.825Z,100.00
2024-02-13T13:38:39.644Z,100.00
2024-02-13T13:41:08.486Z,100.00
2024-02-13T13:43:36.693Z,100.00
2024-02-13T13:46:04.816Z,94.26
2024-02-13T13:48:35.873Z,88.43
2024-02-13T13:51:04.968Z,87.84
2024-02-13T13:53:33.264Z,87.65
2024-02-13T13:56:02.735Z,88.76
2024-02-13T13:58:33.283Z,87.68
2024-02-13T14:01:02.247Z,78.97
2024-02-13T14:03:31.052Z,78.36
2024-02-13T14:06:00.839Z,78.53
2024-02-13T14:08:29.413Z,76.94
2024-02-13T14:10:57.882Z,85.09
2024-02-13T14:13:27.464Z,92.06
2024-02-13T14:15:55.458Z,90.32
2024-02-13T14:18:24.595Z,88.95
2024-02-13T14:20:53.353Z,88.45
2024-02-13T14:23:22.392Z,86.98
2024-02-13T14:25:51.644Z,86.11
2024-02-13T14:28:20.015Z,84.17
2024-02-13T14:30:49.531Z,87.41
2024-02-13T14:33:17.759Z,87.63
2024-02-13T14:35:48.642Z,89.38
2024-02-13T14:38:17.016Z,88.16
2024-02-13T14:40:45.071Z,88.28
2024-02-13T14:43:16.540Z,87.99
2024-02-13T14:45:45.768Z,91.58
2024-02-13T14:48:16.758Z,93.05
2024-02-13T14:50:48.437Z,95.19
2024-02-13T14:53:22.124Z,97.03
2024-02-13T14:55:50.527Z,98.47
2024-02-13T14:58:26.226Z,100.00
2024-02-13T15:01:02.777Z,100.00
2024-02-13T15:03:32.986Z,100.00
2024-02-13T15:06:01.884Z,100.00
2024-02-13T15:08:31.094Z,100.00
2024-02-13T15:11:00.388Z,100.00
2024-02-13T15:13:28.448Z,100.00
2024-02-13T15:15:56.451Z,100.00
2024-02-13T15:18:27.062Z,100.00
2024-02-13T15:20:56.709Z,100.00
2024-02-13T15:23:29.865Z,100.00
2024-02-13T15:25:58.146Z,100.00
2024-02-13T15:28:26.909Z,100.00
2024-02-13T15:30:55.231Z,100.00
2024-02-13T15:33:26.744Z,100.00
2024-02-13T15:36:06.077Z,100.00
2024-02-13T15:38:52.249Z,100.00
2024-02-13T15:41:37.842Z,100.00
2024-02-13T15:44:23.782Z,100.00
2024-02-13T15:47:04.901Z,100.00
2024-02-13T15:49:35.413Z,100.00
2024-02-13T15:52:07.294Z,100.00
2024-02-13T15:54:34.586Z,100.00
2024-02-13T15:57:02.978Z,100.00
2024-02-13T15:59:31.159Z,100.00
2024-02-13T16:02:01.172Z,100.00
2024-02-13T16:04:30.162Z,100.00
2024-02-13T16:06:59.680Z,100.00
2024-02-13T16:09:29.044Z,100.00
2024-02-13T16:11:57.309Z,100.00
2024-02-13T16:14:25.492Z,100.00
2024-02-13T16:16:57.393Z,100.00
2024-02-13T16:19:27.164Z,100.00
2024-02-13T16:21:57.514Z,100.00
2024-02-13T16:24:25.589Z,100.00
2024-02-13T16:26:55.271Z,100.00
2024-02-13T16:29:24.966Z,100.00
2024-02-13T16:31:54.853Z,100.00
2024-02-13T16:34:23.277Z,100.00
2024-02-13T16:36:51.358Z,100.00
2024-02-13T16:39:19.641Z,100.00
2024-02-13T16:41:47.743Z,100.00
2024-02-13T16:44:19.100Z,100.00
2024-02-13T16:46:49.767Z,100.00
2024-02-13T16:49:18.049Z,100.00
2024-02-13T16:51:46.161Z,100.00
2024-02-13T16:54:14.193Z,100.00
2024-02-13T16:56:42.168Z,100.00
2024-02-13T16:59:10.175Z,100.00
2024-02-13T17:01:40.696Z,100.00
2024-02-13T17:04:10.424Z,100.00
2024-02-13T17:06:40.141Z,100.00
2024-02-13T17:09:09.357Z,100.00
2024-02-13T17:11:37.688Z,100.00
2024-02-13T17:14:06.139Z,100.00
2024-02-13T17:16:34.768Z,100.00
2024-02-13T17:19:04.241Z,100.00
2024-02-13T17:21:32.390Z,100.00
2024-02-13T17:24:00.813Z,100.00
2024-02-13T17:26:31.182Z,100.00
2024-02-13T17:29:00.281Z,100.00
2024-02-13T17:31:28.435Z,100.00
2024-02-13T17:33:58.173Z,100.00
2024-02-13T17:36:27.689Z,100.00
2024-02-13T17:38:55.685Z,100.00
2024-02-13T17:41:28.534Z,100.00
2024-02-13T17:44:00.383Z,100.00
2024-02-13T17:46:28.968Z,100.00
2024-02-13T17:48:57.274Z,100.00
2024-02-13T17:51:25.370Z,100.00
2024-02-13T17:53:55.198Z,100.00
2024-02-13T17:56:23.486Z,100.00
2024-02-13T17:58:51.494Z,100.00
2024-02-13T18:01:19.430Z,100.00
2024-02-13T18:03:47.710Z,100.00
2024-02-13T18:06:15.870Z,100.00
2024-02-13T18:08:44.586Z,100.00
2024-02-13T18:11:14.733Z,100.00
2024-02-13T18:13:42.841Z,100.00
2024-02-13T18:16:10.971Z,100.00
2024-02-13T18:18:39.453Z,100.00
2024-02-13T18:21:08.317Z,100.00
2024-02-13T18:23:36.465Z,100.00
2024-02-13T18:26:05.973Z,100.00
2024-02-13T18:28:35.404Z,100.00
2024-02-13T18:31:04.692Z,100.00
2024-02-13T18:33:32.839Z,100.00
2024-02-13T18:36:00.934Z,100.00
2024-02-13T18:38:29.084Z,100.00
2024-02-13T18:40:57.696Z,100.00
2024-02-13T18:43:27.178Z,100.00
2024-02-13T18:45:57.755Z,100.00
2024-02-13T18:48:26.360Z,100.00
2024-02-13T18:50:54.495Z,100.00
2024-02-13T18:53:24.362Z,100.00
2024-02-13T18:55:52.511Z,100.00
2024-02-13T18:58:20.524Z,100.00
2024-02-13T19:00:49.470Z,100.00
2024-02-13T19:03:21.467Z,100.00
2024-02-13T19:05:50.360Z,100.00
2024-02-13T19:08:19.802Z,100.00
2024-02-13T19:10:51.694Z,100.00
2024-02-13T19:13:20.864Z,100.00
2024-02-13T19:15:49.052Z,100.00
2024-02-13T19:18:18.700Z,100.00
2024-02-13T19:20:47.539Z,100.00
2024-02-13T19:23:21.695Z,100.00
2024-02-13T19:25:50.366Z,100.00
2024-02-13T19:28:18.646Z,100.00
2024-02-13T19:30:50.605Z,100.00
2024-02-13T19:33:20.200Z,100.00
2024-02-13T19:35:50.438Z,100.00
2024-02-13T19:38:20.434Z,100.00
2024-02-13T19:40:48.507Z,100.00
2024-02-13T19:43:16.848Z,100.00
2024-02-13T19:45:45.345Z,100.00
2024-02-13T19:48:14.318Z,100.00
2024-02-13T19:50:43.735Z,100.00
2024-02-13T19:53:11.746Z,100.00
2024-02-13T19:55:39.920Z,100.00
2024-02-13T19:58:08.148Z,100.00
2024-02-13T20:00:36.214Z,100.00
2024-02-13T20:03:06.201Z,100.00
2024-02-13T20:05:34.542Z,100.00
2024-02-13T20:08:03.906Z,100.00
2024-02-13T20:10:32.112Z,100.00
2024-02-13T20:13:00.196Z,100.00
2024-02-13T20:15:28.102Z,100.00
2024-02-13T20:17:56.738Z,100.00
2024-02-13T20:20:25.117Z,100.00
2024-02-13T20:22:53.552Z,100.00
2024-02-13T20:25:25.768Z,100.00
2024-02-13T20:27:57.803Z,100.00
2024-02-13T20:30:25.824Z,100.00
2024-02-13T20:32:53.986Z,100.00
2024-02-13T20:35:22.671Z,100.00
2024-02-13T20:37:50.737Z,100.00
2024-02-13T20:40:18.748Z,100.00
2024-02-13T20:42:50.549Z,100.00
2024-02-13T20:45:22.768Z,100.00
2024-02-13T20:47:53.210Z,100.00
2024-02-13T20:50:22.267Z,100.00
2024-02-13T20:52:50.498Z,100.00
2024-02-13T20:55:20.457Z,100.00
2024-02-13T20:57:50.919Z,100.00
2024-02-13T21:00:19.543Z,100.00
2024-02-13T21:02:49.089Z,100.00
2024-02-13T21:05:17.384Z,100.00
2024-02-13T21:07:45.532Z,100.00
2024-02-13T21:10:13.591Z,100.00
2024-02-13T21:12:41.807Z,100.00
2024-02-13T21:15:13.830Z,100.00
2024-02-13T21:17:42.626Z,100.00
2024-02-13T21:20:12.947Z,100.00
2024-02-13T21:22:58.433Z,100.00
2024-02-13T21:25:27.208Z,100.00
2024-02-13T21:28:04.446Z,100.00
2024-02-13T21:30:35.027Z,100.00
2024-02-13T21:33:04.721Z,100.00
2024-02-13T21:35:34.529Z,100.00
2024-02-13T21:38:05.552Z,100.00
2024-02-13T21:40:35.120Z,100.00
2024-02-13T21:43:05.906Z,100.00
2024-02-13T21:45:36.630Z,100.00
2024-02-13T21:48:06.115Z,100.00
2024-02-13T21:50:34.526Z,100.00
2024-02-13T21:53:02.526Z,100.00
2024-02-13T21:55:30.480Z,100.00
2024-02-13T21:57:59.374Z,100.00
2024-02-13T22:00:27.758Z,100.00
2024-02-13T22:02:57.823Z,100.00
2024-02-13T22:05:25.829Z,100.00
2024-02-13T22:07:53.742Z,100.00
2024-02-13T22:10:22.930Z,100.00
2024-02-13T22:12:51.420Z,100.00
2024-02-13T22:15:21.956Z,100.00
2024-02-13T22:17:50.546Z,100.00
2024-02-13T22:20:20.063Z,100.00
2024-02-13T22:22:53.873Z,100.00
2024-02-13T22:25:21.889Z,100.00
2024-02-13T22:27:49.858Z,100.00
2024-02-13T22:30:18.803Z,100.00
2024-02-13T22:32:48.135Z,100.00
2024-02-13T22:35:16.419Z,100.00
2024-02-13T22:37:47.090Z,100.00
2024-02-13T22:40:18.367Z,100.00
2024-02-13T22:42:46.356Z,100.00
2024-02-13T22:45:14.395Z,100.00
2024-02-13T22:47:44.671Z,100.00
2024-02-13T22:50:16.292Z,100.00
2024-02-13T22:52:48.037Z,100.00
2024-02-13T22:55:16.275Z,100.00
2024-02-13T22:57:44.328Z,100.00
2024-02-13T23:00:35.031Z,100.00
2024-02-13T23:03:03.803Z,100.00
2024-02-13T23:05:32.930Z,100.00
2024-02-13T23:08:06.180Z,100.00
2024-02-13T23:10:34.184Z,100.00
2024-02-13T23:13:02.129Z,100.00
2024-02-13T23:15:33.414Z,100.00
2024-02-13T23:18:02.549Z,100.00
2024-02-13T23:20:32.154Z,100.00
2024-02-13T23:23:04.945Z,100.00
2024-02-13T23:25:36.842Z,100.00
2024-02-13T23:28:07.158Z,100.00
2024-02-13T23:30:36.400Z,100.00
2024-02-13T23:33:05.181Z,100.00
2024-02-13T23:35:33.280Z,100.00
2024-02-13T23:38:01.582Z,100.00
2024-02-13T23:40:31.749Z,100.00
2024-02-13T23:43:00.197Z,100.00
2024-02-13T23:45:28.464Z,100.00
2024-02-13T23:47:56.547Z,100.00
2024-02-13T23:50:24.660Z,100.00
2024-02-13T23:52:52.656Z,100.00
2024-02-13T23:55:20.882Z,100.00
2024-02-13T23:57:50.440Z,100.00
